createdAt,value
2018-06-17T00:01:09.397Z,98.10
2018-06-17T00:03:37.871Z,98.40
2018-06-17T00:06:06.310Z,98.50
2018-06-17T00:08:34.757Z,98.70
2018-06-17T00:11:03.187Z,98.90
2018-06-17T00:13:31.612Z,99.00
2018-06-17T00:16:00.030Z,99.40
2018-06-17T00:18:28.564Z,99.40
2018-06-17T00:20:57.279Z,99.40
2018-06-17T00:23:25.724Z,99.70
2018-06-17T00:28:22.395Z,99.80
2018-06-17T00:30:50.856Z,99.70
2018-06-17T00:35:47.542Z,99.80
2018-06-17T00:38:15.974Z,99.90
2018-06-17T00:40:44.411Z,99.80
2018-06-17T00:43:12.817Z,99.80
2018-06-17T00:45:41.230Z,99.80
2018-06-17T00:48:09.643Z,99.50
2018-06-17T00:50:38.132Z,99.30
2018-06-17T00:53:06.572Z,99.80
2018-06-17T00:55:35.240Z,99.70
2018-06-17T00:58:03.688Z,99.60
2018-06-17T01:00:32.167Z,99.40
2018-06-17T01:03:00.622Z,99.60
2018-06-17T01:05:29.023Z,99.70
2018-06-17T01:07:57.969Z,99.90
2018-06-17T01:10:26.423Z,99.90
2018-06-17T01:12:54.848Z,99.60
2018-06-17T01:15:23.288Z,99.30
2018-06-17T01:17:51.706Z,99.20
2018-06-17T01:20:20.110Z,99.20
2018-06-17T01:22:48.666Z,99.10
2018-06-17T01:25:17.081Z,99.10
2018-06-17T01:27:45.645Z,99.30
2018-06-17T01:30:14.069Z,99.20
2018-06-17T01:32:42.494Z,99.20
2018-06-17T01:35:10.955Z,99.20
2018-06-17T01:37:39.465Z,99.30
2018-06-17T01:40:07.909Z,99.40
2018-06-17T01:42:36.332Z,99.50
2018-06-17T01:45:04.817Z,99.40
2018-06-17T01:47:33.241Z,99.40
2018-06-17T01:50:01.635Z,99.30
2018-06-17T01:52:30.081Z,99.10
2018-06-17T01:54:58.512Z,99.10
2018-06-17T01:57:26.921Z,99.00
2018-06-17T01:59:55.465Z,98.70
2018-06-17T02:02:23.880Z,98.70
2018-06-17T02:04:57.753Z,98.80
2018-06-17T02:07:31.406Z,98.80
2018-06-17T02:10:05.220Z,98.80
2018-06-17T02:12:33.648Z,98.60
2018-06-17T02:15:02.029Z,98.70
2018-06-17T02:17:30.435Z,98.40
2018-06-17T02:19:58.957Z,98.60
2018-06-17T02:24:55.642Z,98.80
2018-06-17T02:27:24.032Z,98.60
2018-06-17T02:29:52.457Z,98.40
2018-06-17T02:32:20.865Z,98.20
2018-06-17T02:34:49.386Z,98.40
2018-06-17T02:37:17.792Z,98.00
2018-06-17T02:39:46.216Z,98.40
2018-06-17T02:42:14.642Z,98.40
2018-06-17T02:44:43.053Z,98.30
2018-06-17T02:47:16.802Z,98.10
2018-06-17T02:49:47.947Z,98.70
2018-06-17T02:52:25.711Z,98.70
2018-06-17T02:54:54.849Z,98.90
2018-06-17T02:57:23.421Z,99.70
2018-06-17T02:59:51.835Z,99.80
2018-06-17T03:02:25.525Z,99.80
2018-06-17T03:04:54.017Z,99.70
2018-06-17T03:07:22.461Z,99.90
2018-06-17T03:09:50.885Z,99.90
2018-06-17T03:12:19.327Z,99.90
2018-06-17T03:14:47.771Z,99.90
2018-06-17T03:17:16.181Z,99.90
2018-06-17T03:19:44.539Z,99.90
2018-06-17T03:22:12.952Z,99.90
2018-06-17T03:24:46.756Z,99.90
2018-06-17T03:27:20.507Z,99.90
2018-06-17T03:29:54.377Z,99.90
2018-06-17T03:32:27.965Z,99.90
2018-06-17T03:35:01.805Z,99.90
2018-06-17T03:37:30.268Z,99.90
2018-06-17T03:39:58.745Z,99.90
2018-06-17T03:42:27.144Z,99.90
2018-06-17T03:44:55.590Z,99.90
2018-06-17T03:47:24.072Z,99.90
2018-06-17T03:49:52.465Z,99.90
2018-06-17T03:52:20.893Z,99.90
2018-06-17T03:54:49.344Z,99.90
2018-06-17T03:57:17.760Z,99.90
2018-06-17T03:59:46.236Z,99.90
2018-06-17T04:02:14.772Z,99.90
2018-06-17T04:04:48.540Z,99.90
2018-06-17T04:07:16.961Z,99.90
2018-06-17T04:09:45.433Z,99.90
2018-06-17T04:12:13.857Z,99.90
2018-06-17T04:14:42.268Z,99.90
2018-06-17T04:17:15.141Z,99.90
2018-06-17T04:19:45.194Z,99.90
2018-06-17T04:22:13.976Z,99.90
2018-06-17T04:24:42.566Z,99.90
2018-06-17T04:27:11.023Z,99.90
2018-06-17T04:29:39.470Z,99.90
2018-06-17T04:32:07.892Z,99.90
2018-06-17T04:34:36.412Z,99.90
2018-06-17T04:37:05.120Z,99.90
2018-06-17T04:39:33.752Z,99.90
2018-06-17T04:42:02.176Z,99.90
2018-06-17T04:44:30.552Z,99.80
2018-06-17T04:46:59.076Z,99.70
2018-06-17T04:49:27.512Z,99.70
2018-06-17T04:51:55.988Z,99.20
2018-06-17T04:54:24.410Z,99.10
2018-06-17T04:56:52.880Z,98.80
2018-06-17T04:59:21.488Z,98.90
2018-06-17T05:01:50.085Z,98.80
2018-06-17T05:04:18.670Z,99.00
2018-06-17T05:06:47.355Z,99.10
2018-06-17T05:09:15.837Z,98.50
2018-06-17T05:11:44.511Z,98.00
2018-06-17T05:14:13.001Z,97.80
2018-06-17T05:16:41.408Z,95.70
2018-06-17T05:19:09.796Z,94.90
2018-06-17T05:21:38.428Z,94.50
2018-06-17T05:24:06.847Z,94.00
2018-06-17T05:26:36.639Z,94.20
2018-06-17T05:29:05.306Z,94.10
2018-06-17T05:31:33.727Z,93.70
2018-06-17T05:34:02.124Z,93.60
2018-06-17T05:36:30.522Z,94.10
2018-06-17T05:38:59.105Z,93.90
2018-06-17T05:41:27.547Z,93.40
2018-06-17T05:43:56.307Z,93.30
2018-06-17T05:46:24.910Z,93.80
2018-06-17T05:48:53.425Z,93.30
2018-06-17T05:51:21.817Z,93.40
2018-06-17T05:53:50.223Z,93.20
2018-06-17T05:56:18.642Z,93.10
2018-06-17T05:58:47.046Z,92.80
2018-06-17T06:01:15.864Z,92.90
2018-06-17T06:03:44.296Z,93.00
2018-06-17T06:06:12.728Z,93.00
2018-06-17T06:08:41.307Z,92.70
2018-06-17T06:11:10.098Z,93.00
2018-06-17T06:13:38.503Z,92.80
2018-06-17T06:16:07.007Z,92.20
2018-06-17T06:18:35.364Z,91.80
2018-06-17T06:21:03.756Z,91.90
2018-06-17T06:23:32.171Z,91.60
2018-06-17T06:26:00.546Z,91.70
2018-06-17T06:28:29.163Z,91.40
2018-06-17T06:30:57.637Z,91.30
2018-06-17T06:33:26.008Z,91.00
2018-06-17T06:35:54.466Z,90.40
2018-06-17T06:38:22.946Z,90.30
2018-06-17T06:40:51.392Z,90.00
2018-06-17T06:43:19.845Z,89.20
2018-06-17T06:45:48.434Z,88.80
2018-06-17T06:48:17.136Z,88.80
2018-06-17T06:50:45.550Z,88.40
2018-06-17T06:53:13.964Z,88.60
2018-06-17T06:55:42.448Z,88.40
2018-06-17T06:58:10.953Z,87.80
2018-06-17T07:00:39.404Z,87.60
2018-06-17T07:03:18.878Z,87.60
2018-06-17T07:05:58.870Z,87.40
2018-06-17T07:08:38.812Z,87.40
2018-06-17T07:11:07.394Z,86.50
2018-06-17T07:13:35.852Z,86.20
2018-06-17T07:16:15.747Z,85.30
2018-06-17T07:18:44.169Z,84.70
2018-06-17T07:21:12.632Z,84.70
2018-06-17T07:23:41.143Z,83.60
2018-06-17T07:26:34.429Z,83.70
2018-06-17T07:29:14.534Z,83.10
2018-06-17T07:31:43.099Z,81.70
2018-06-17T07:34:12.489Z,81.50
2018-06-17T07:36:41.193Z,81.20
2018-06-17T07:41:20.947Z,81.80
2018-06-17T07:43:49.521Z,81.20
2018-06-17T07:46:17.896Z,80.30
2018-06-17T07:49:55.436Z,80.20
2018-06-17T07:52:36.522Z,80.00
2018-06-17T07:55:05.100Z,79.00
2018-06-17T07:57:34.641Z,79.00
2018-06-17T08:00:03.168Z,77.70
2018-06-17T08:02:31.592Z,77.20
2018-06-17T08:05:00.068Z,77.90
2018-06-17T08:07:29.270Z,77.00
2018-06-17T08:09:58.406Z,77.20
2018-06-17T08:12:26.896Z,77.30
2018-06-17T08:14:55.686Z,77.80
2018-06-17T08:17:24.188Z,78.30
2018-06-17T08:19:52.635Z,77.60
2018-06-17T08:22:21.124Z,77.00
2018-06-17T08:24:49.627Z,77.60
2018-06-17T08:27:18.107Z,77.20
2018-06-17T08:29:46.614Z,76.70
2018-06-17T08:32:15.025Z,78.10
2018-06-17T08:34:43.526Z,78.20
2018-06-17T08:37:11.976Z,78.50
2018-06-17T08:39:40.408Z,80.50
2018-06-17T08:42:09.063Z,81.90
2018-06-17T08:44:37.443Z,81.90
2018-06-17T08:47:06.058Z,82.30
2018-06-17T08:49:34.483Z,81.10
2018-06-17T08:52:02.979Z,78.70
2018-06-17T08:54:33.230Z,78.70
2018-06-17T08:57:01.894Z,77.70
2018-06-17T08:59:30.843Z,77.10
2018-06-17T09:01:59.763Z,78.00
2018-06-17T09:04:28.465Z,79.00
2018-06-17T09:06:56.928Z,78.40
2018-06-17T09:09:25.688Z,79.30
2018-06-17T09:11:54.332Z,78.60
2018-06-17T09:14:22.872Z,77.60
2018-06-17T09:16:51.296Z,77.40
2018-06-17T09:19:19.800Z,77.00
2018-06-17T09:21:48.326Z,77.30
2018-06-17T09:24:17.024Z,76.20
2018-06-17T09:26:45.560Z,76.00
2018-06-17T09:29:14.084Z,76.00
2018-06-17T09:31:42.567Z,75.60
2018-06-17T09:34:11.092Z,78.10
2018-06-17T09:36:39.660Z,75.10
2018-06-17T09:39:10.280Z,74.20
2018-06-17T09:41:39.993Z,72.50
2018-06-17T09:44:09.183Z,70.00
2018-06-17T09:46:37.641Z,70.50
2018-06-17T09:49:06.222Z,71.20
2018-06-17T09:51:34.668Z,71.00
2018-06-17T09:54:03.780Z,71.30
2018-06-17T09:56:32.384Z,73.50
2018-06-17T10:01:29.065Z,72.00
2018-06-17T10:03:57.465Z,72.00
2018-06-17T10:06:26.855Z,72.30
2018-06-17T10:08:55.374Z,72.10
2018-06-17T10:11:23.973Z,72.00
2018-06-17T10:13:52.511Z,73.80
2018-06-17T10:16:21.256Z,74.60
2018-06-17T10:18:49.992Z,73.00
2018-06-17T10:21:18.492Z,74.40
2018-06-17T10:23:47.122Z,73.50
2018-06-17T10:26:15.541Z,73.80
2018-06-17T10:28:44.010Z,74.50
2018-06-17T10:31:12.498Z,74.80
2018-06-17T10:33:41.850Z,74.50
2018-06-17T10:36:10.369Z,74.30
2018-06-17T10:38:38.802Z,73.00
2018-06-17T10:41:07.244Z,72.40
2018-06-17T10:43:35.710Z,70.70
2018-06-17T10:46:04.157Z,71.00
2018-06-17T10:48:32.584Z,70.60
2018-06-17T10:51:01.161Z,70.90
2018-06-17T10:53:29.680Z,71.00
2018-06-17T10:55:58.344Z,70.70
2018-06-17T10:58:26.746Z,72.00
2018-06-17T11:00:55.184Z,72.60
2018-06-17T11:03:23.648Z,72.00
2018-06-17T11:05:52.356Z,70.50
2018-06-17T11:08:20.821Z,70.30
2018-06-17T11:10:49.305Z,69.70
2018-06-17T11:13:17.925Z,69.40
2018-06-17T11:15:47.338Z,68.70
2018-06-17T11:18:15.820Z,69.90
2018-06-17T11:20:44.635Z,71.20
2018-06-17T11:23:13.070Z,71.50
2018-06-17T11:25:41.655Z,71.90
2018-06-17T11:28:10.088Z,70.90
2018-06-17T11:30:45.033Z,70.30
2018-06-17T11:33:13.709Z,70.30
2018-06-17T11:35:42.167Z,69.30
2018-06-17T11:38:10.597Z,67.70
2018-06-17T11:40:39.041Z,64.30
2018-06-17T11:43:07.709Z,64.80
2018-06-17T11:45:36.179Z,64.10
2018-06-17T11:48:04.601Z,66.10
2018-06-17T11:50:33.273Z,66.80
2018-06-17T11:53:01.739Z,68.40
2018-06-17T11:55:31.277Z,70.10
2018-06-17T11:57:59.651Z,72.20
2018-06-17T12:00:28.118Z,72.80
2018-06-17T12:02:56.597Z,72.90
2018-06-17T12:05:25.105Z,74.00
2018-06-17T12:07:53.512Z,74.80
2018-06-17T12:10:22.217Z,74.40
2018-06-17T12:12:50.655Z,74.30
2018-06-17T12:15:19.146Z,74.10
2018-06-17T12:17:47.645Z,74.90
2018-06-17T12:20:16.120Z,75.50
2018-06-17T12:22:44.703Z,75.50
2018-06-17T12:25:14.205Z,76.20
2018-06-17T12:27:42.729Z,76.40
2018-06-17T12:30:11.168Z,76.50
2018-06-17T12:32:39.581Z,76.40
2018-06-17T12:35:08.065Z,76.70
2018-06-17T12:37:36.764Z,77.50
2018-06-17T12:40:05.323Z,77.90
2018-06-17T12:42:33.851Z,75.90
2018-06-17T12:45:02.309Z,75.70
2018-06-17T12:47:30.733Z,75.80
2018-06-17T12:49:59.300Z,75.10
2018-06-17T12:52:28.314Z,75.50
2018-06-17T12:54:56.736Z,77.30
2018-06-17T12:57:25.698Z,75.90
2018-06-17T12:59:54.126Z,74.20
2018-06-17T13:02:22.531Z,75.20
2018-06-17T13:04:51.504Z,75.50
2018-06-17T13:07:19.884Z,76.40
2018-06-17T13:09:48.821Z,75.80
2018-06-17T13:12:17.265Z,75.20
2018-06-17T13:14:45.731Z,76.70
2018-06-17T13:17:14.113Z,76.90
2018-06-17T13:19:43.002Z,75.50
2018-06-17T13:22:11.457Z,75.40
2018-06-17T13:24:39.852Z,75.20
2018-06-17T13:27:08.296Z,76.40
2018-06-17T13:29:36.695Z,76.30
2018-06-17T13:32:05.648Z,75.40
2018-06-17T13:34:34.108Z,75.20
2018-06-17T13:37:02.504Z,75.70
2018-06-17T13:39:30.956Z,76.00
2018-06-17T13:41:59.365Z,75.70
2018-06-17T13:44:27.745Z,74.70
2018-06-17T13:46:56.171Z,75.20
2018-06-17T13:49:24.658Z,74.60
2018-06-17T13:51:53.160Z,74.20
2018-06-17T13:54:21.686Z,73.50
2018-06-17T13:56:50.077Z,72.80
2018-06-17T13:59:18.613Z,72.40
2018-06-17T14:01:47.415Z,71.70
2018-06-17T14:04:15.834Z,72.10
2018-06-17T14:06:44.423Z,73.50
2018-06-17T14:09:12.874Z,71.40
2018-06-17T14:11:41.235Z,71.80
2018-06-17T14:14:11.537Z,73.40
2018-06-17T14:16:39.999Z,71.90
2018-06-17T14:19:08.432Z,72.40
2018-06-17T14:21:36.823Z,72.50
2018-06-17T14:24:05.454Z,72.30
2018-06-17T14:26:33.904Z,72.00
2018-06-17T14:29:02.335Z,73.40
2018-06-17T14:31:31.935Z,74.70
2018-06-17T14:36:34.333Z,74.00
2018-06-17T14:39:02.854Z,72.90
2018-06-17T14:41:31.328Z,73.40
2018-06-17T14:44:05.020Z,74.70
2018-06-17T14:46:38.784Z,73.40
2018-06-17T14:49:12.662Z,73.50
2018-06-17T14:51:46.428Z,72.90
2018-06-17T14:54:14.980Z,73.00
2018-06-17T14:56:43.377Z,74.00
2018-06-17T14:59:11.776Z,72.10
2018-06-17T15:01:40.222Z,73.40
2018-06-17T15:04:08.641Z,73.40
2018-06-17T15:06:37.052Z,72.50
2018-06-17T15:09:08.576Z,72.60
2018-06-17T15:11:37.028Z,72.80
2018-06-17T15:14:05.575Z,73.70
2018-06-17T15:16:33.976Z,74.50
2018-06-17T15:19:02.386Z,74.50
2018-06-17T15:21:30.781Z,73.80
2018-06-17T15:23:59.168Z,72.40
2018-06-17T15:26:27.624Z,72.40
2018-06-17T15:28:56.024Z,72.40
2018-06-17T15:32:31.750Z,71.60
2018-06-17T15:35:05.366Z,73.50
2018-06-17T15:37:39.606Z,75.30
2018-06-17T15:40:08.003Z,74.30
2018-06-17T15:42:36.384Z,74.20
2018-06-17T15:45:04.842Z,75.40
2018-06-17T15:47:35.981Z,74.90
2018-06-17T15:50:04.449Z,73.40
2018-06-17T15:52:32.912Z,73.50
2018-06-17T15:55:02.281Z,73.20
2018-06-17T15:57:30.751Z,73.40
2018-06-17T15:59:59.180Z,71.80
2018-06-17T16:02:27.624Z,69.80
2018-06-17T16:04:56.837Z,70.70
2018-06-17T16:07:25.538Z,70.40
2018-06-17T16:09:54.094Z,69.50
2018-06-17T16:15:01.869Z,72.10
2018-06-17T16:17:35.484Z,70.60
2018-06-17T16:20:09.168Z,69.70
2018-06-17T16:22:37.632Z,71.60
2018-06-17T16:25:06.169Z,70.70
2018-06-17T16:27:35.476Z,69.30
2018-06-17T16:30:03.973Z,69.80
2018-06-17T16:32:32.368Z,72.00
2018-06-17T16:35:00.753Z,70.20
2018-06-17T16:37:29.185Z,71.70
2018-06-17T16:39:57.597Z,70.80
2018-06-17T16:42:25.983Z,71.10
2018-06-17T16:44:54.503Z,71.10
2018-06-17T16:47:22.888Z,70.40
2018-06-17T16:49:51.576Z,70.50
2018-06-17T16:53:28.056Z,70.40
2018-06-17T16:56:02.128Z,71.40
2018-06-17T16:58:35.843Z,71.70
2018-06-17T17:01:04.416Z,70.60
2018-06-17T17:03:32.880Z,70.90
2018-06-17T17:06:01.333Z,70.80
2018-06-17T17:08:29.740Z,70.50
2018-06-17T17:10:58.287Z,70.80
2018-06-17T17:13:26.692Z,71.10
2018-06-17T17:15:55.119Z,69.30
2018-06-17T17:18:23.572Z,69.10
2018-06-17T17:20:51.992Z,69.30
2018-06-17T17:23:20.421Z,64.70
2018-06-17T17:25:48.916Z,67.60
2018-06-17T17:28:17.381Z,67.40
2018-06-17T17:30:48.419Z,63.00
2018-06-17T17:33:22.120Z,64.00
2018-06-17T17:35:55.995Z,63.20
2018-06-17T17:38:27.720Z,64.10
2018-06-17T17:41:01.773Z,63.50
2018-06-17T17:43:30.225Z,64.90
2018-06-17T17:47:03.825Z,64.70
2018-06-17T17:49:32.212Z,64.60
2018-06-17T17:52:00.628Z,66.50
2018-06-17T17:54:29.008Z,68.90
2018-06-17T17:56:57.518Z,69.20
2018-06-17T17:59:25.924Z,70.20
2018-06-17T18:01:54.348Z,68.10
2018-06-17T18:04:24.424Z,68.00
2018-06-17T18:06:53.505Z,67.10
2018-06-17T18:09:25.814Z,67.70
2018-06-17T18:11:56.652Z,68.70
2018-06-17T18:14:25.554Z,67.30
2018-06-17T18:16:53.949Z,67.40
2018-06-17T18:19:27.546Z,68.20
2018-06-17T18:21:56.568Z,68.40
2018-06-17T18:24:25.132Z,68.40
2018-06-17T18:26:58.864Z,68.20
2018-06-17T18:29:32.536Z,68.20
2018-06-17T18:32:06.249Z,67.70
2018-06-17T18:34:40.076Z,67.80
2018-06-17T18:37:08.616Z,68.40
2018-06-17T18:39:37.004Z,68.80
2018-06-17T18:42:05.436Z,69.30
2018-06-17T18:44:34.864Z,69.70
2018-06-17T18:47:03.370Z,70.50
2018-06-17T18:49:31.910Z,71.50
2018-06-17T18:52:00.318Z,72.80
2018-06-17T18:54:28.727Z,72.80
2018-06-17T18:56:57.460Z,72.30
2018-06-17T18:59:25.897Z,72.30
2018-06-17T19:01:54.340Z,72.40
2018-06-17T19:04:22.784Z,72.40
2018-06-17T19:06:51.239Z,72.70
2018-06-17T19:09:25.001Z,73.10
2018-06-17T19:11:59.148Z,72.70
2018-06-17T19:14:32.880Z,73.40
2018-06-17T19:17:06.692Z,73.80
2018-06-17T19:19:35.147Z,74.40
2018-06-17T19:22:07.771Z,74.00
2018-06-17T19:24:36.235Z,74.10
2018-06-17T19:27:04.777Z,73.70
2018-06-17T19:29:33.249Z,74.60
2018-06-17T19:32:01.749Z,74.70
2018-06-17T19:34:30.249Z,74.50
2018-06-17T19:36:58.735Z,75.00
2018-06-17T19:39:27.243Z,74.50
2018-06-17T19:41:55.672Z,74.70
2018-06-17T19:44:24.128Z,74.90
2018-06-17T19:46:52.535Z,75.60
2018-06-17T19:49:25.151Z,76.00
2018-06-17T19:51:58.868Z,75.10
2018-06-17T19:55:35.722Z,75.60
2018-06-17T20:00:40.272Z,75.80
2018-06-17T20:03:08.853Z,75.50
2018-06-17T20:05:37.365Z,75.80
2018-06-17T20:08:06.039Z,75.80
2018-06-17T20:10:34.691Z,75.50
2018-06-17T20:13:03.637Z,75.70
2018-06-17T20:15:32.259Z,76.20
2018-06-17T20:18:00.745Z,77.50
2018-06-17T20:20:29.293Z,77.10
2018-06-17T20:22:59.553Z,77.90
2018-06-17T20:25:28.668Z,78.60
2018-06-17T20:27:57.219Z,79.10
2018-06-17T20:30:25.829Z,79.10
2018-06-17T20:33:00.488Z,80.60
2018-06-17T20:35:34.465Z,79.80
2018-06-17T20:38:08.202Z,80.00
2018-06-17T20:40:42.050Z,80.40
2018-06-17T20:43:15.844Z,80.60
2018-06-17T20:45:44.386Z,80.80
2018-06-17T20:48:12.815Z,80.70
2018-06-17T20:50:41.329Z,81.20
2018-06-17T20:53:09.744Z,81.80
2018-06-17T20:55:38.141Z,82.40
2018-06-17T20:58:06.637Z,82.40
2018-06-17T21:00:34.987Z,82.90
2018-06-17T21:03:05.944Z,83.60
2018-06-17T21:05:34.717Z,83.30
2018-06-17T21:08:03.206Z,83.30
2018-06-17T21:10:31.883Z,83.30
2018-06-17T21:13:00.390Z,83.10
2018-06-17T21:15:28.866Z,84.00
2018-06-17T21:17:57.389Z,83.70
2018-06-17T21:20:31.115Z,85.20
2018-06-17T21:23:05.090Z,85.20
2018-06-17T21:25:39.019Z,85.10
2018-06-17T21:28:07.745Z,85.20
2018-06-17T21:30:36.296Z,84.90
2018-06-17T21:33:04.684Z,85.20
2018-06-17T21:35:33.136Z,84.80
2018-06-17T21:38:01.604Z,85.20
2018-06-17T21:40:30.036Z,86.00
2018-06-17T21:42:58.442Z,85.30
2018-06-17T21:45:26.828Z,85.90
2018-06-17T21:47:55.292Z,86.20
2018-06-17T21:50:23.757Z,87.10
2018-06-17T21:52:52.327Z,87.10
2018-06-17T21:55:25.070Z,87.30
2018-06-17T21:57:53.488Z,87.90
2018-06-17T22:00:21.936Z,87.70
2018-06-17T22:02:50.326Z,88.40
2018-06-17T22:05:18.784Z,87.80
2018-06-17T22:07:52.510Z,87.00
2018-06-17T22:10:26.280Z,86.70
2018-06-17T22:13:00.778Z,86.60
2018-06-17T22:15:34.558Z,86.90
2018-06-17T22:18:03.333Z,86.90
2018-06-17T22:20:31.808Z,86.90
2018-06-17T22:23:00.221Z,86.90
2018-06-17T22:25:28.658Z,87.00
2018-06-17T22:27:57.044Z,87.00
2018-06-17T22:30:25.491Z,86.70
2018-06-17T22:32:53.907Z,86.80
2018-06-17T22:35:22.318Z,86.80
2018-06-17T22:37:50.975Z,87.30
2018-06-17T22:40:19.387Z,87.00
2018-06-17T22:42:47.781Z,87.40
2018-06-17T22:45:16.171Z,87.50
2018-06-17T22:47:49.927Z,87.60
2018-06-17T22:50:18.327Z,87.60
2018-06-17T22:52:58.136Z,87.70
2018-06-17T22:55:26.524Z,87.70
2018-06-17T22:58:00.232Z,87.60
2018-06-17T23:00:33.953Z,87.80
2018-06-17T23:03:07.786Z,87.80
2018-06-17T23:05:41.547Z,87.60
2018-06-17T23:08:15.269Z,87.80
2018-06-17T23:10:43.659Z,87.70
2018-06-17T23:13:12.065Z,88.10
2018-06-17T23:15:40.471Z,89.20
2018-06-17T23:18:08.905Z,88.40
2018-06-17T23:20:37.403Z,88.80
2018-06-17T23:23:05.959Z,89.10
2018-06-17T23:25:34.411Z,89.30
2018-06-17T23:28:02.805Z,89.30
2018-06-17T23:30:31.343Z,89.10
2018-06-17T23:32:59.723Z,89.40
2018-06-17T23:35:28.206Z,89.80
2018-06-17T23:37:56.600Z,89.70
2018-06-17T23:40:25.024Z,89.80
2018-06-17T23:42:53.433Z,90.10
2018-06-17T23:45:21.839Z,89.80
2018-06-17T23:47:55.627Z,89.90
2018-06-17T23:50:29.424Z,90.10
2018-06-17T23:53:03.145Z,90.10
2018-06-17T23:55:36.839Z,90.00
2018-06-17T23:58:05.253Z,90.10
